sensor_id;sensor_type;location;lat;lon;timestamp;P1;durP1;ratioP1;P2;durP2;ratioP2
55423;SDS011;41294;42.666;23.350;2024-03-07T00:02:07;26.93;;;24.07;;
55423;SDS011;41294;42.666;23.350;2024-03-07T00:04:33;26.40;;;23.57;;
55423;SDS011;41294;42.666;23.350;2024-03-07T00:07:00;25.70;;;23.00;;
55423;SDS011;41294;42.666;23.350;2024-03-07T00:09:27;26.00;;;23.30;;
55423;SDS011;41294;42.666;23.350;2024-03-07T00:11:52;26.37;;;23.67;;
55423;SDS011;41294;42.666;23.350;2024-03-07T00:14:18;25.63;;;22.90;;
55423;SDS011;41294;42.666;23.350;2024-03-07T00:16:44;24.97;;;22.37;;
55423;SDS011;41294;42.666;23.350;2024-03-07T00:19:10;24.53;;;21.93;;
55423;SDS011;41294;42.666;23.350;2024-03-07T00:21:35;25.73;;;22.73;;
55423;SDS011;41294;42.666;23.350;2024-03-07T00:24:01;25.67;;;22.97;;
55423;SDS011;41294;42.666;23.350;2024-03-07T00:26:26;25.67;;;23.00;;
55423;SDS011;41294;42.666;23.350;2024-03-07T00:28:52;26.70;;;23.53;;
55423;SDS011;41294;42.666;23.350;2024-03-07T00:31:17;27.07;;;23.53;;
55423;SDS011;41294;42.666;23.350;2024-03-07T00:33:42;27.40;;;24.50;;
55423;SDS011;41294;42.666;23.350;2024-03-07T00:36:08;26.77;;;23.90;;
55423;SDS011;41294;42.666;23.350;2024-03-07T00:38:33;25.07;;;22.37;;
55423;SDS011;41294;42.666;23.350;2024-03-07T00:40:59;25.40;;;21.50;;
55423;SDS011;41294;42.666;23.350;2024-03-07T00:43:25;28.03;;;24.20;;
55423;SDS011;41294;42.666;23.350;2024-03-07T00:45:51;25.23;;;22.63;;
55423;SDS011;41294;42.666;23.350;2024-03-07T00:48:16;25.67;;;22.87;;
55423;SDS011;41294;42.666;23.350;2024-03-07T00:50:42;27.20;;;22.57;;
55423;SDS011;41294;42.666;23.350;2024-03-07T00:53:08;27.67;;;23.70;;
55423;SDS011;41294;42.666;23.350;2024-03-07T00:55:34;27.60;;;24.10;;
55423;SDS011;41294;42.666;23.350;2024-03-07T00:58:00;27.67;;;23.37;;
55423;SDS011;41294;42.666;23.350;2024-03-07T01:00:25;26.13;;;22.57;;
55423;SDS011;41294;42.666;23.350;2024-03-07T01:02:51;24.90;;;21.03;;
55423;SDS011;41294;42.666;23.350;2024-03-07T01:05:18;26.40;;;23.57;;
55423;SDS011;41294;42.666;23.350;2024-03-07T01:07:44;24.67;;;22.07;;
55423;SDS011;41294;42.666;23.350;2024-03-07T01:10:12;25.77;;;22.53;;
55423;SDS011;41294;42.666;23.350;2024-03-07T01:12:38;28.43;;;24.17;;
55423;SDS011;41294;42.666;23.350;2024-03-07T01:15:04;29.83;;;24.53;;
55423;SDS011;41294;42.666;23.350;2024-03-07T01:17:30;25.90;;;22.90;;
55423;SDS011;41294;42.666;23.350;2024-03-07T01:19:57;28.23;;;24.33;;
55423;SDS011;41294;42.666;23.350;2024-03-07T01:22:23;26.57;;;23.80;;
55423;SDS011;41294;42.666;23.350;2024-03-07T01:24:48;27.80;;;23.77;;
55423;SDS011;41294;42.666;23.350;2024-03-07T01:27:15;27.77;;;23.33;;
55423;SDS011;41294;42.666;23.350;2024-03-07T01:29:41;28.77;;;24.47;;
55423;SDS011;41294;42.666;23.350;2024-03-07T01:32:08;25.87;;;23.03;;
55423;SDS011;41294;42.666;23.350;2024-03-07T01:34:33;25.17;;;22.13;;
55423;SDS011;41294;42.666;23.350;2024-03-07T01:36:59;25.40;;;22.70;;
55423;SDS011;41294;42.666;23.350;2024-03-07T01:39:24;24.17;;;21.63;;
55423;SDS011;41294;42.666;23.350;2024-03-07T01:41:50;24.17;;;21.50;;
55423;SDS011;41294;42.666;23.350;2024-03-07T01:44:15;22.63;;;20.23;;
55423;SDS011;41294;42.666;23.350;2024-03-07T01:46:41;22.70;;;20.30;;
55423;SDS011;41294;42.666;23.350;2024-03-07T01:49:07;23.17;;;20.67;;
55423;SDS011;41294;42.666;23.350;2024-03-07T01:51:33;23.50;;;20.97;;
55423;SDS011;41294;42.666;23.350;2024-03-07T01:54:01;24.10;;;20.00;;
55423;SDS011;41294;42.666;23.350;2024-03-07T01:56:27;21.57;;;19.27;;
55423;SDS011;41294;42.666;23.350;2024-03-07T01:58:53;21.03;;;18.87;;
55423;SDS011;41294;42.666;23.350;2024-03-07T02:01:19;21.17;;;18.77;;
55423;SDS011;41294;42.666;23.350;2024-03-07T02:03:45;19.53;;;17.37;;
55423;SDS011;41294;42.666;23.350;2024-03-07T02:06:11;19.57;;;17.47;;
55423;SDS011;41294;42.666;23.350;2024-03-07T02:08:37;18.83;;;16.73;;
55423;SDS011;41294;42.666;23.350;2024-03-07T02:11:03;19.77;;;17.60;;
55423;SDS011;41294;42.666;23.350;2024-03-07T02:13:29;21.30;;;16.83;;
55423;SDS011;41294;42.666;23.350;2024-03-07T02:15:54;18.73;;;16.80;;
55423;SDS011;41294;42.666;23.350;2024-03-07T02:18:20;14.40;;;12.83;;
55423;SDS011;41294;42.666;23.350;2024-03-07T02:20:46;13.13;;;11.77;;
55423;SDS011;41294;42.666;23.350;2024-03-07T02:23:12;8.53;;;7.70;;
55423;SDS011;41294;42.666;23.350;2024-03-07T02:25:38;5.93;;;5.33;;
55423;SDS011;41294;42.666;23.350;2024-03-07T02:28:04;3.83;;;3.53;;
55423;SDS011;41294;42.666;23.350;2024-03-07T02:30:29;3.37;;;3.17;;
55423;SDS011;41294;42.666;23.350;2024-03-07T02:32:58;3.10;;;2.90;;
55423;SDS011;41294;42.666;23.350;2024-03-07T02:35:34;2.50;;;2.30;;
55423;SDS011;41294;42.666;23.350;2024-03-07T02:38:00;2.20;;;2.10;;
55423;SDS011;41294;42.666;23.350;2024-03-07T02:40:28;2.43;;;2.00;;
55423;SDS011;41294;42.666;23.350;2024-03-07T02:42:53;2.57;;;2.37;;
55423;SDS011;41294;42.666;23.350;2024-03-07T02:45:19;2.40;;;2.20;;
55423;SDS011;41294;42.666;23.350;2024-03-07T02:47:44;1.70;;;1.60;;
55423;SDS011;41294;42.666;23.350;2024-03-07T02:50:10;2.17;;;2.00;;
55423;SDS011;41294;42.666;23.350;2024-03-07T02:52:36;1.90;;;1.80;;
55423;SDS011;41294;42.666;23.350;2024-03-07T02:55:01;2.47;;;2.00;;
55423;SDS011;41294;42.666;23.350;2024-03-07T02:57:29;2.10;;;1.90;;
55423;SDS011;41294;42.666;23.350;2024-03-07T02:59:55;2.20;;;2.00;;
55423;SDS011;41294;42.666;23.350;2024-03-07T03:02:21;2.30;;;2.10;;
55423;SDS011;41294;42.666;23.350;2024-03-07T03:04:47;2.10;;;2.00;;
55423;SDS011;41294;42.666;23.350;2024-03-07T03:07:13;2.10;;;2.00;;
55423;SDS011;41294;42.666;23.350;2024-03-07T03:09:38;2.17;;;2.07;;
55423;SDS011;41294;42.666;23.350;2024-03-07T03:12:08;2.40;;;2.20;;
55423;SDS011;41294;42.666;23.350;2024-03-07T03:14:34;1.80;;;1.70;;
55423;SDS011;41294;42.666;23.350;2024-03-07T03:17:00;3.10;;;1.90;;
55423;SDS011;41294;42.666;23.350;2024-03-07T03:19:26;2.17;;;2.00;;
55423;SDS011;41294;42.666;23.350;2024-03-07T03:21:51;2.17;;;1.90;;
55423;SDS011;41294;42.666;23.350;2024-03-07T03:24:17;2.40;;;2.07;;
55423;SDS011;41294;42.666;23.350;2024-03-07T03:26:43;2.10;;;2.00;;
55423;SDS011;41294;42.666;23.350;2024-03-07T03:29:10;2.30;;;2.10;;
55423;SDS011;41294;42.666;23.350;2024-03-07T03:31:36;2.63;;;2.23;;
55423;SDS011;41294;42.666;23.350;2024-03-07T03:34:02;2.40;;;2.30;;
55423;SDS011;41294;42.666;23.350;2024-03-07T03:36:27;2.03;;;1.83;;
55423;SDS011;41294;42.666;23.350;2024-03-07T03:38:54;2.10;;;2.00;;
55423;SDS011;41294;42.666;23.350;2024-03-07T03:41:20;2.30;;;2.10;;
55423;SDS011;41294;42.666;23.350;2024-03-07T03:43:46;2.20;;;2.00;;
55423;SDS011;41294;42.666;23.350;2024-03-07T03:46:12;2.17;;;2.00;;
55423;SDS011;41294;42.666;23.350;2024-03-07T03:48:41;2.50;;;2.00;;
55423;SDS011;41294;42.666;23.350;2024-03-07T03:51:07;2.10;;;1.90;;
55423;SDS011;41294;42.666;23.350;2024-03-07T03:53:33;2.10;;;2.00;;
55423;SDS011;41294;42.666;23.350;2024-03-07T03:55:59;2.20;;;2.10;;
55423;SDS011;41294;42.666;23.350;2024-03-07T03:58:25;1.77;;;1.67;;
55423;SDS011;41294;42.666;23.350;2024-03-07T04:00:50;1.80;;;1.70;;
55423;SDS011;41294;42.666;23.350;2024-03-07T04:03:16;1.97;;;1.77;;
55423;SDS011;41294;42.666;23.350;2024-03-07T04:05:42;1.50;;;1.40;;
55423;SDS011;41294;42.666;23.350;2024-03-07T04:08:08;1.60;;;1.43;;
55423;SDS011;41294;42.666;23.350;2024-03-07T04:10:35;1.20;;;1.20;;
55423;SDS011;41294;42.666;23.350;2024-03-07T04:13:00;1.60;;;1.50;;
55423;SDS011;41294;42.666;23.350;2024-03-07T04:15:26;1.37;;;1.27;;
55423;SDS011;41294;42.666;23.350;2024-03-07T04:17:52;1.50;;;1.40;;
55423;SDS011;41294;42.666;23.350;2024-03-07T04:20:18;1.40;;;1.30;;
55423;SDS011;41294;42.666;23.350;2024-03-07T04:22:44;1.17;;;1.17;;
55423;SDS011;41294;42.666;23.350;2024-03-07T04:25:09;1.20;;;1.20;;
55423;SDS011;41294;42.666;23.350;2024-03-07T04:27:35;1.60;;;1.20;;
55423;SDS011;41294;42.666;23.350;2024-03-07T04:30:05;1.20;;;1.20;;
55423;SDS011;41294;42.666;23.350;2024-03-07T04:32:32;1.20;;;1.20;;
55423;SDS011;41294;42.666;23.350;2024-03-07T04:34:59;1.10;;;1.10;;
55423;SDS011;41294;42.666;23.350;2024-03-07T04:37:25;1.20;;;1.20;;
55423;SDS011;41294;42.666;23.350;2024-03-07T04:39:52;1.20;;;1.20;;
55423;SDS011;41294;42.666;23.350;2024-03-07T04:42:18;1.23;;;1.00;;
55423;SDS011;41294;42.666;23.350;2024-03-07T04:44:43;1.30;;;1.30;;
55423;SDS011;41294;42.666;23.350;2024-03-07T04:47:09;1.10;;;1.10;;
55423;SDS011;41294;42.666;23.350;2024-03-07T04:49:35;1.70;;;1.60;;
55423;SDS011;41294;42.666;23.350;2024-03-07T04:52:02;1.47;;;1.43;;
55423;SDS011;41294;42.666;23.350;2024-03-07T04:54:30;1.80;;;1.70;;
55423;SDS011;41294;42.666;23.350;2024-03-07T04:56:56;1.67;;;1.57;;
55423;SDS011;41294;42.666;23.350;2024-03-07T04:59:22;1.60;;;1.50;;
55423;SDS011;41294;42.666;23.350;2024-03-07T05:01:48;1.50;;;1.40;;
55423;SDS011;41294;42.666;23.350;2024-03-07T05:04:18;1.90;;;1.80;;
55423;SDS011;41294;42.666;23.350;2024-03-07T05:06:43;2.23;;;2.13;;
55423;SDS011;41294;42.666;23.350;2024-03-07T05:09:12;3.23;;;2.70;;
55423;SDS011;41294;42.666;23.350;2024-03-07T05:11:48;3.20;;;3.00;;
55423;SDS011;41294;42.666;23.350;2024-03-07T05:14:13;3.00;;;2.73;;
55423;SDS011;41294;42.666;23.350;2024-03-07T05:16:47;3.50;;;3.20;;
55423;SDS011;41294;42.666;23.350;2024-03-07T05:19:33;3.57;;;3.27;;
55423;SDS011;41294;42.666;23.350;2024-03-07T05:21:59;4.33;;;3.93;;
55423;SDS011;41294;42.666;23.350;2024-03-07T05:24:25;4.40;;;3.93;;
55423;SDS011;41294;42.666;23.350;2024-03-07T05:26:51;4.80;;;4.30;;
55423;SDS011;41294;42.666;23.350;2024-03-07T05:29:18;4.30;;;3.57;;
55423;SDS011;41294;42.666;23.350;2024-03-07T05:31:44;3.83;;;3.53;;
55423;SDS011;41294;42.666;23.350;2024-03-07T05:34:13;3.50;;;3.20;;
55423;SDS011;41294;42.666;23.350;2024-03-07T05:36:40;4.57;;;4.17;;
55423;SDS011;41294;42.666;23.350;2024-03-07T05:39:11;4.23;;;3.93;;
55423;SDS011;41294;42.666;23.350;2024-03-07T05:41:41;3.80;;;3.50;;
55423;SDS011;41294;42.666;23.350;2024-03-07T05:44:08;3.63;;;3.27;;
55423;SDS011;41294;42.666;23.350;2024-03-07T05:46:36;3.50;;;3.20;;
55423;SDS011;41294;42.666;23.350;2024-03-07T05:49:06;4.43;;;2.90;;
55423;SDS011;41294;42.666;23.350;2024-03-07T05:51:35;4.87;;;3.47;;
55423;SDS011;41294;42.666;23.350;2024-03-07T05:54:01;3.23;;;2.93;;
55423;SDS011;41294;42.666;23.350;2024-03-07T05:56:27;3.50;;;3.20;;
55423;SDS011;41294;42.666;23.350;2024-03-07T05:58:53;3.13;;;2.80;;
55423;SDS011;41294;42.666;23.350;2024-03-07T06:01:19;3.10;;;2.90;;
55423;SDS011;41294;42.666;23.350;2024-03-07T06:03:44;3.17;;;2.87;;
55423;SDS011;41294;42.666;23.350;2024-03-07T06:06:11;4.23;;;3.80;;
55423;SDS011;41294;42.666;23.350;2024-03-07T06:08:37;4.80;;;4.07;;
55423;SDS011;41294;42.666;23.350;2024-03-07T06:11:07;6.83;;;3.80;;
55423;SDS011;41294;42.666;23.350;2024-03-07T06:13:33;4.50;;;4.10;;
55423;SDS011;41294;42.666;23.350;2024-03-07T06:15:58;4.33;;;3.97;;
55423;SDS011;41294;42.666;23.350;2024-03-07T06:18:23;4.23;;;3.83;;
55423;SDS011;41294;42.666;23.350;2024-03-07T06:20:49;4.03;;;3.70;;
55423;SDS011;41294;42.666;23.350;2024-03-07T06:23:14;4.63;;;4.23;;
55423;SDS011;41294;42.666;23.350;2024-03-07T06:25:41;4.30;;;3.90;;
55423;SDS011;41294;42.666;23.350;2024-03-07T06:28:17;6.03;;;4.50;;
55423;SDS011;41294;42.666;23.350;2024-03-07T06:30:44;5.43;;;4.93;;
55423;SDS011;41294;42.666;23.350;2024-03-07T06:33:10;5.10;;;4.60;;
55423;SDS011;41294;42.666;23.350;2024-03-07T06:35:36;5.13;;;4.63;;
55423;SDS011;41294;42.666;23.350;2024-03-07T06:38:04;5.50;;;5.00;;
55423;SDS011;41294;42.666;23.350;2024-03-07T06:40:31;5.60;;;4.57;;
55423;SDS011;41294;42.666;23.350;2024-03-07T06:42:58;5.47;;;4.90;;
55423;SDS011;41294;42.666;23.350;2024-03-07T06:45:24;5.97;;;5.03;;
55423;SDS011;41294;42.666;23.350;2024-03-07T06:47:49;5.53;;;5.03;;
55423;SDS011;41294;42.666;23.350;2024-03-07T06:50:17;5.70;;;5.20;;
55423;SDS011;41294;42.666;23.350;2024-03-07T06:52:47;7.00;;;5.97;;
55423;SDS011;41294;42.666;23.350;2024-03-07T06:55:16;8.30;;;5.57;;
55423;SDS011;41294;42.666;23.350;2024-03-07T06:57:42;5.40;;;4.90;;
55423;SDS011;41294;42.666;23.350;2024-03-07T07:00:09;5.30;;;4.77;;
55423;SDS011;41294;42.666;23.350;2024-03-07T07:02:39;5.63;;;5.00;;
55423;SDS011;41294;42.666;23.350;2024-03-07T07:05:06;5.90;;;5.37;;
55423;SDS011;41294;42.666;23.350;2024-03-07T07:07:39;6.10;;;5.50;;
55423;SDS011;41294;42.666;23.350;2024-03-07T07:10:08;3.97;;;3.67;;
55423;SDS011;41294;42.666;23.350;2024-03-07T07:12:41;4.73;;;4.30;;
55423;SDS011;41294;42.666;23.350;2024-03-07T07:15:20;4.90;;;4.40;;
55423;SDS011;41294;42.666;23.350;2024-03-07T07:17:46;5.00;;;4.60;;
55423;SDS011;41294;42.666;23.350;2024-03-07T07:20:14;6.70;;;4.70;;
55423;SDS011;41294;42.666;23.350;2024-03-07T07:22:40;5.73;;;4.40;;
55423;SDS011;41294;42.666;23.350;2024-03-07T07:25:06;4.73;;;4.33;;
55423;SDS011;41294;42.666;23.350;2024-03-07T07:27:43;2.77;;;2.57;;
55423;SDS011;41294;42.666;23.350;2024-03-07T07:30:19;3.50;;;3.20;;
55423;SDS011;41294;42.666;23.350;2024-03-07T07:32:52;3.57;;;3.27;;
55423;SDS011;41294;42.666;23.350;2024-03-07T07:35:21;3.70;;;3.40;;
55423;SDS011;41294;42.666;23.350;2024-03-07T07:37:48;4.20;;;3.80;;
55423;SDS011;41294;42.666;23.350;2024-03-07T07:40:17;3.97;;;3.57;;
55423;SDS011;41294;42.666;23.350;2024-03-07T07:42:44;4.57;;;4.17;;
55423;SDS011;41294;42.666;23.350;2024-03-07T07:45:11;4.27;;;3.87;;
55423;SDS011;41294;42.666;23.350;2024-03-07T07:47:39;4.73;;;4.30;;
55423;SDS011;41294;42.666;23.350;2024-03-07T07:50:08;12.97;;;9.60;;
55423;SDS011;41294;42.666;23.350;2024-03-07T07:52:48;7.43;;;5.53;;
55423;SDS011;41294;42.666;23.350;2024-03-07T07:55:18;5.27;;;4.77;;
55423;SDS011;41294;42.666;23.350;2024-03-07T07:57:55;5.57;;;5.07;;
55423;SDS011;41294;42.666;23.350;2024-03-07T08:00:28;5.03;;;3.93;;
55423;SDS011;41294;42.666;23.350;2024-03-07T08:03:03;6.70;;;4.20;;
55423;SDS011;41294;42.666;23.350;2024-03-07T08:05:31;4.50;;;4.10;;
55423;SDS011;41294;42.666;23.350;2024-03-07T08:07:59;5.13;;;4.50;;
55423;SDS011;41294;42.666;23.350;2024-03-07T08:10:31;5.43;;;4.37;;
55423;SDS011;41294;42.666;23.350;2024-03-07T08:12:58;4.13;;;3.53;;
55423;SDS011;41294;42.666;23.350;2024-03-07T08:15:26;3.83;;;3.43;;
55423;SDS011;41294;42.666;23.350;2024-03-07T08:17:53;4.00;;;3.63;;
55423;SDS011;41294;42.666;23.350;2024-03-07T08:20:20;3.40;;;3.20;;
55423;SDS011;41294;42.666;23.350;2024-03-07T08:22:47;3.53;;;3.23;;
55423;SDS011;41294;42.666;23.350;2024-03-07T08:25:18;3.60;;;3.30;;
55423;SDS011;41294;42.666;23.350;2024-03-07T08:27:45;4.03;;;3.73;;
55423;SDS011;41294;42.666;23.350;2024-03-07T08:30:13;4.67;;;3.90;;
55423;SDS011;41294;42.666;23.350;2024-03-07T08:32:43;5.13;;;3.90;;
55423;SDS011;41294;42.666;23.350;2024-03-07T08:35:09;3.97;;;3.60;;
55423;SDS011;41294;42.666;23.350;2024-03-07T08:37:36;4.07;;;3.67;;
55423;SDS011;41294;42.666;23.350;2024-03-07T08:40:03;3.57;;;3.30;;
55423;SDS011;41294;42.666;23.350;2024-03-07T08:42:30;3.40;;;3.03;;
55423;SDS011;41294;42.666;23.350;2024-03-07T08:44:58;3.53;;;3.23;;
55423;SDS011;41294;42.666;23.350;2024-03-07T08:47:26;3.60;;;3.30;;
55423;SDS011;41294;42.666;23.350;2024-03-07T08:49:52;3.80;;;3.23;;
55423;SDS011;41294;42.666;23.350;2024-03-07T08:52:17;2.90;;;2.70;;
55423;SDS011;41294;42.666;23.350;2024-03-07T08:54:43;3.30;;;2.80;;
55423;SDS011;41294;42.666;23.350;2024-03-07T08:57:09;3.27;;;2.97;;
55423;SDS011;41294;42.666;23.350;2024-03-07T08:59:35;3.40;;;3.10;;
55423;SDS011;41294;42.666;23.350;2024-03-07T09:02:01;2.70;;;2.50;;
55423;SDS011;41294;42.666;23.350;2024-03-07T09:04:27;3.33;;;2.73;;
55423;SDS011;41294;42.666;23.350;2024-03-07T09:06:54;3.50;;;2.90;;
55423;SDS011;41294;42.666;23.350;2024-03-07T09:09:19;3.43;;;3.13;;
55423;SDS011;41294;42.666;23.350;2024-03-07T09:11:45;3.60;;;3.30;;
55423;SDS011;41294;42.666;23.350;2024-03-07T09:14:11;4.47;;;3.67;;
55423;SDS011;41294;42.666;23.350;2024-03-07T09:16:37;3.77;;;3.47;;
55423;SDS011;41294;42.666;23.350;2024-03-07T09:19:03;4.40;;;3.90;;
55423;SDS011;41294;42.666;23.350;2024-03-07T09:21:28;4.20;;;3.90;;
55423;SDS011;41294;42.666;23.350;2024-03-07T09:23:54;5.07;;;3.87;;
55423;SDS011;41294;42.666;23.350;2024-03-07T09:26:20;4.10;;;3.70;;
55423;SDS011;41294;42.666;23.350;2024-03-07T09:28:45;5.77;;;4.23;;
55423;SDS011;41294;42.666;23.350;2024-03-07T09:31:11;4.80;;;3.60;;
55423;SDS011;41294;42.666;23.350;2024-03-07T09:33:39;5.00;;;3.90;;
55423;SDS011;41294;42.666;23.350;2024-03-07T09:36:05;3.90;;;3.60;;
55423;SDS011;41294;42.666;23.350;2024-03-07T09:38:32;4.67;;;3.97;;
55423;SDS011;41294;42.666;23.350;2024-03-07T09:40:58;4.70;;;4.30;;
55423;SDS011;41294;42.666;23.350;2024-03-07T09:43:24;4.80;;;4.23;;
55423;SDS011;41294;42.666;23.350;2024-03-07T09:45:53;4.53;;;4.00;;
55423;SDS011;41294;42.666;23.350;2024-03-07T09:48:20;5.73;;;3.90;;
55423;SDS011;41294;42.666;23.350;2024-03-07T09:50:52;4.07;;;3.67;;
55423;SDS011;41294;42.666;23.350;2024-03-07T09:53:20;6.07;;;4.13;;
55423;SDS011;41294;42.666;23.350;2024-03-07T09:55:46;5.03;;;3.83;;
55423;SDS011;41294;42.666;23.350;2024-03-07T09:58:11;4.60;;;4.20;;
55423;SDS011;41294;42.666;23.350;2024-03-07T10:00:41;4.17;;;3.83;;
55423;SDS011;41294;42.666;23.350;2024-03-07T10:03:09;5.90;;;4.97;;
55423;SDS011;41294;42.666;23.350;2024-03-07T10:05:37;4.33;;;3.93;;
55423;SDS011;41294;42.666;23.350;2024-03-07T10:08:04;4.47;;;4.07;;
55423;SDS011;41294;42.666;23.350;2024-03-07T10:10:29;5.13;;;4.20;;
55423;SDS011;41294;42.666;23.350;2024-03-07T10:12:55;4.60;;;4.20;;
55423;SDS011;41294;42.666;23.350;2024-03-07T10:15:29;4.57;;;4.17;;
55423;SDS011;41294;42.666;23.350;2024-03-07T10:17:56;5.67;;;5.07;;
55423;SDS011;41294;42.666;23.350;2024-03-07T10:20:21;5.07;;;4.57;;
55423;SDS011;41294;42.666;23.350;2024-03-07T10:22:47;6.27;;;4.60;;
55423;SDS011;41294;42.666;23.350;2024-03-07T10:25:16;6.67;;;5.73;;
55423;SDS011;41294;42.666;23.350;2024-03-07T10:27:45;6.00;;;5.40;;
55423;SDS011;41294;42.666;23.350;2024-03-07T10:30:14;5.67;;;4.90;;
55423;SDS011;41294;42.666;23.350;2024-03-07T10:32:45;5.03;;;4.63;;
55423;SDS011;41294;42.666;23.350;2024-03-07T10:35:23;6.13;;;5.63;;
55423;SDS011;41294;42.666;23.350;2024-03-07T10:37:55;6.90;;;6.30;;
55423;SDS011;41294;42.666;23.350;2024-03-07T10:40:24;6.10;;;5.53;;
55423;SDS011;41294;42.666;23.350;2024-03-07T10:42:52;7.03;;;6.10;;
55423;SDS011;41294;42.666;23.350;2024-03-07T10:45:21;9.37;;;6.53;;
55423;SDS011;41294;42.666;23.350;2024-03-07T10:47:52;8.57;;;6.90;;
55423;SDS011;41294;42.666;23.350;2024-03-07T10:50:27;5.47;;;4.77;;
55423;SDS011;41294;42.666;23.350;2024-03-07T11:01:18;5.57;;;4.30;;
55423;SDS011;41294;42.666;23.350;2024-03-07T11:03:46;4.60;;;4.20;;
55423;SDS011;41294;42.666;23.350;2024-03-07T11:06:11;6.63;;;4.27;;
55423;SDS011;41294;42.666;23.350;2024-03-07T11:08:39;5.57;;;4.67;;
55423;SDS011;41294;42.666;23.350;2024-03-07T11:11:06;4.63;;;3.63;;
55423;SDS011;41294;42.666;23.350;2024-03-07T11:13:32;4.90;;;4.30;;
55423;SDS011;41294;42.666;23.350;2024-03-07T11:15:59;5.17;;;4.40;;
55423;SDS011;41294;42.666;23.350;2024-03-07T11:18:26;7.27;;;4.20;;
55423;SDS011;41294;42.666;23.350;2024-03-07T11:20:52;4.60;;;4.20;;
55423;SDS011;41294;42.666;23.350;2024-03-07T11:23:26;5.23;;;4.70;;
55423;SDS011;41294;42.666;23.350;2024-03-07T11:26:16;5.40;;;4.90;;
55423;SDS011;41294;42.666;23.350;2024-03-07T11:28:41;5.90;;;5.13;;
55423;SDS011;41294;42.666;23.350;2024-03-07T11:31:26;6.33;;;5.13;;
55423;SDS011;41294;42.666;23.350;2024-03-07T11:34:17;6.50;;;5.00;;
55423;SDS011;41294;42.666;23.350;2024-03-07T11:36:47;6.33;;;5.47;;
55423;SDS011;41294;42.666;23.350;2024-03-07T11:42:04;7.13;;;6.20;;
55423;SDS011;41294;42.666;23.350;2024-03-07T11:44:31;9.60;;;5.33;;
55423;SDS011;41294;42.666;23.350;2024-03-07T11:47:00;6.87;;;6.17;;
55423;SDS011;41294;42.666;23.350;2024-03-07T11:49:35;6.30;;;5.33;;
55423;SDS011;41294;42.666;23.350;2024-03-07T11:52:03;6.30;;;5.73;;
55423;SDS011;41294;42.666;23.350;2024-03-07T11:54:36;6.80;;;5.30;;
55423;SDS011;41294;42.666;23.350;2024-03-07T11:57:06;6.50;;;5.90;;
55423;SDS011;41294;42.666;23.350;2024-03-07T11:59:39;8.67;;;7.20;;
55423;SDS011;41294;42.666;23.350;2024-03-07T12:02:05;6.80;;;6.10;;
55423;SDS011;41294;42.666;23.350;2024-03-07T12:04:31;8.73;;;6.53;;
55423;SDS011;41294;42.666;23.350;2024-03-07T12:07:00;6.80;;;6.10;;
55423;SDS011;41294;42.666;23.350;2024-03-07T12:09:25;5.80;;;5.30;;
55423;SDS011;41294;42.666;23.350;2024-03-07T12:11:51;7.10;;;5.47;;
55423;SDS011;41294;42.666;23.350;2024-03-07T12:14:21;7.37;;;4.47;;
55423;SDS011;41294;42.666;23.350;2024-03-07T12:16:46;8.63;;;5.07;;
55423;SDS011;41294;42.666;23.350;2024-03-07T12:19:12;5.50;;;5.00;;
55423;SDS011;41294;42.666;23.350;2024-03-07T12:21:42;5.57;;;5.00;;
55423;SDS011;41294;42.666;23.350;2024-03-07T12:24:12;8.80;;;5.27;;
55423;SDS011;41294;42.666;23.350;2024-03-07T12:26:38;8.73;;;4.97;;
55423;SDS011;41294;42.666;23.350;2024-03-07T12:29:07;5.40;;;4.63;;
55423;SDS011;41294;42.666;23.350;2024-03-07T12:31:37;4.73;;;4.10;;
55423;SDS011;41294;42.666;23.350;2024-03-07T12:34:04;6.80;;;5.03;;
55423;SDS011;41294;42.666;23.350;2024-03-07T12:36:33;5.57;;;4.93;;
55423;SDS011;41294;42.666;23.350;2024-03-07T12:39:23;6.93;;;5.20;;
55423;SDS011;41294;42.666;23.350;2024-03-07T12:41:53;9.43;;;6.43;;
55423;SDS011;41294;42.666;23.350;2024-03-07T12:44:21;6.60;;;5.80;;
55423;SDS011;41294;42.666;23.350;2024-03-07T12:46:56;7.70;;;6.87;;
55423;SDS011;41294;42.666;23.350;2024-03-07T12:49:22;7.83;;;7.03;;
55423;SDS011;41294;42.666;23.350;2024-03-07T12:51:53;11.87;;;7.90;;
55423;SDS011;41294;42.666;23.350;2024-03-07T12:54:19;10.20;;;7.60;;
55423;SDS011;41294;42.666;23.350;2024-03-07T12:56:47;9.57;;;8.23;;
55423;SDS011;41294;42.666;23.350;2024-03-07T12:59:15;10.77;;;8.80;;
55423;SDS011;41294;42.666;23.350;2024-03-07T13:01:42;9.33;;;8.20;;
55423;SDS011;41294;42.666;23.350;2024-03-07T13:04:12;8.90;;;8.00;;
55423;SDS011;41294;42.666;23.350;2024-03-07T13:06:37;9.17;;;7.77;;
55423;SDS011;41294;42.666;23.350;2024-03-07T13:09:08;9.90;;;7.87;;
55423;SDS011;41294;42.666;23.350;2024-03-07T13:11:37;11.90;;;8.10;;
55423;SDS011;41294;42.666;23.350;2024-03-07T13:14:06;9.13;;;7.30;;
55423;SDS011;41294;42.666;23.350;2024-03-07T13:16:32;9.23;;;7.50;;
55423;SDS011;41294;42.666;23.350;2024-03-07T13:18:58;11.63;;;7.77;;
55423;SDS011;41294;42.666;23.350;2024-03-07T13:21:23;7.30;;;6.60;;
55423;SDS011;41294;42.666;23.350;2024-03-07T13:23:50;7.90;;;7.10;;
55423;SDS011;41294;42.666;23.350;2024-03-07T13:26:17;9.57;;;7.23;;
55423;SDS011;41294;42.666;23.350;2024-03-07T13:28:49;8.47;;;7.40;;
55423;SDS011;41294;42.666;23.350;2024-03-07T13:31:16;9.53;;;7.47;;
55423;SDS011;41294;42.666;23.350;2024-03-07T13:33:45;7.43;;;6.47;;
55423;SDS011;41294;42.666;23.350;2024-03-07T13:36:11;8.27;;;7.10;;
55423;SDS011;41294;42.666;23.350;2024-03-07T13:38:39;8.67;;;7.20;;
55423;SDS011;41294;42.666;23.350;2024-03-07T13:41:05;6.47;;;5.87;;
55423;SDS011;41294;42.666;23.350;2024-03-07T13:43:31;7.33;;;6.63;;
55423;SDS011;41294;42.666;23.350;2024-03-07T13:45:58;8.53;;;6.20;;
55423;SDS011;41294;42.666;23.350;2024-03-07T13:48:24;6.70;;;6.10;;
55423;SDS011;41294;42.666;23.350;2024-03-07T13:50:51;6.60;;;5.90;;
55423;SDS011;41294;42.666;23.350;2024-03-07T13:53:19;6.47;;;5.80;;
55423;SDS011;41294;42.666;23.350;2024-03-07T13:58:34;7.30;;;6.60;;
55423;SDS011;41294;42.666;23.350;2024-03-07T14:32:07;7.37;;;6.20;;
55423;SDS011;41294;42.666;23.350;2024-03-07T14:37:54;7.10;;;5.70;;
55423;SDS011;41294;42.666;23.350;2024-03-07T14:40:30;8.17;;;6.50;;
55423;SDS011;41294;42.666;23.350;2024-03-07T14:42:56;7.37;;;6.57;;
55423;SDS011;41294;42.666;23.350;2024-03-07T14:45:27;7.80;;;6.93;;
55423;SDS011;41294;42.666;23.350;2024-03-07T14:47:57;8.33;;;6.57;;
55423;SDS011;41294;42.666;23.350;2024-03-07T14:50:22;9.40;;;8.40;;
55423;SDS011;41294;42.666;23.350;2024-03-07T14:52:52;9.10;;;8.20;;
55423;SDS011;41294;42.666;23.350;2024-03-07T14:55:18;9.80;;;8.80;;
55423;SDS011;41294;42.666;23.350;2024-03-07T14:57:44;8.67;;;7.77;;
55423;SDS011;41294;42.666;23.350;2024-03-07T15:00:11;8.97;;;7.80;;
55423;SDS011;41294;42.666;23.350;2024-03-07T15:02:55;9.33;;;8.33;;
55423;SDS011;41294;42.666;23.350;2024-03-07T15:05:24;10.57;;;8.53;;
55423;SDS011;41294;42.666;23.350;2024-03-07T15:07:50;12.73;;;10.67;;
55423;SDS011;41294;42.666;23.350;2024-03-07T15:10:18;11.83;;;10.20;;
55423;SDS011;41294;42.666;23.350;2024-03-07T15:12:49;11.97;;;10.47;;
55423;SDS011;41294;42.666;23.350;2024-03-07T15:15:15;16.50;;;12.63;;
55423;SDS011;41294;42.666;23.350;2024-03-07T15:17:43;12.27;;;11.07;;
55423;SDS011;41294;42.666;23.350;2024-03-07T15:20:10;15.90;;;13.67;;